createdAt,value
2023-02-02T00:00:42.247Z,19.58
2023-02-02T00:01:42.268Z,19.58
2023-02-02T00:02:42.244Z,19.56
2023-02-02T00:03:42.283Z,19.58
2023-02-02T00:04:42.197Z,19.58
2023-02-02T00:05:42.194Z,19.58
2023-02-02T00:06:42.186Z,19.58
2023-02-02T00:07:42.859Z,19.58
2023-02-02T00:08:42.174Z,19.58
2023-02-02T00:09:42.166Z,19.56
2023-02-02T00:10:42.127Z,19.59
2023-02-02T00:11:42.132Z,19.56
2023-02-02T00:12:42.149Z,19.58
2023-02-02T00:13:42.123Z,19.58
2023-02-02T00:14:42.108Z,19.58
2023-02-02T00:15:42.101Z,19.58
2023-02-02T00:16:42.091Z,19.58
2023-02-02T00:17:42.138Z,19.58
2023-02-02T00:18:42.110Z,19.59
2023-02-02T00:19:42.107Z,19.56
2023-02-02T00:20:42.034Z,19.56
2023-02-02T00:21:42.015Z,19.58
2023-02-02T00:22:42.026Z,19.56
2023-02-02T00:23:42.043Z,19.56
2023-02-02T00:24:42.028Z,19.58
2023-02-02T00:25:41.986Z,19.58
2023-02-02T00:26:42.032Z,19.58
2023-02-02T00:27:41.973Z,19.58
2023-02-02T00:28:41.984Z,19.58
2023-02-02T00:29:41.961Z,19.58
2023-02-02T00:30:41.974Z,19.59
2023-02-02T00:31:41.984Z,19.58
2023-02-02T00:32:41.906Z,19.58
2023-02-02T00:33:41.968Z,19.58
2023-02-02T00:34:41.902Z,19.58
2023-02-02T00:35:41.920Z,19.58
2023-02-02T00:36:41.878Z,19.58
2023-02-02T00:37:41.879Z,19.59
2023-02-02T00:38:41.856Z,19.59
2023-02-02T00:39:41.900Z,19.59
2023-02-02T00:40:41.808Z,19.59
2023-02-02T00:41:41.850Z,19.58
2023-02-02T00:42:41.836Z,19.56
2023-02-02T00:43:41.850Z,19.59
2023-02-02T00:44:41.798Z,19.59
2023-02-02T00:45:41.896Z,19.58
2023-02-02T00:46:41.759Z,19.59
2023-02-02T00:47:41.771Z,19.59
2023-02-02T00:48:41.792Z,19.59
2023-02-02T00:49:41.763Z,19.59
2023-02-02T00:50:41.763Z,19.59
2023-02-02T00:51:41.732Z,19.58
2023-02-02T00:52:41.717Z,19.58
2023-02-02T00:53:41.707Z,19.58
2023-02-02T00:54:41.680Z,19.58
2023-02-02T00:55:41.696Z,19.59
2023-02-02T00:56:41.717Z,19.59
2023-02-02T00:57:41.651Z,19.59
2023-02-02T00:58:41.709Z,19.59
2023-02-02T00:59:41.631Z,19.58
2023-02-02T01:00:41.664Z,19.58
2023-02-02T01:01:41.661Z,19.59
2023-02-02T01:02:41.647Z,19.58
2023-02-02T01:03:41.568Z,19.58
2023-02-02T01:04:41.587Z,19.56
2023-02-02T01:05:41.567Z,19.58
2023-02-02T01:06:41.608Z,19.58
2023-02-02T01:07:41.538Z,19.59
2023-02-02T01:08:41.539Z,19.59
2023-02-02T01:09:41.519Z,19.58
2023-02-02T01:10:41.539Z,19.59
2023-02-02T01:11:41.849Z,19.61
2023-02-02T01:12:41.551Z,19.59
2023-02-02T01:13:41.490Z,19.58
2023-02-02T01:14:41.489Z,19.58
2023-02-02T01:15:41.486Z,19.58
2023-02-02T01:16:41.551Z,19.59
2023-02-02T01:17:41.458Z,19.59
2023-02-02T01:18:41.467Z,19.59
2023-02-02T01:19:41.463Z,19.59
2023-02-02T01:20:41.433Z,19.59
2023-02-02T01:21:41.421Z,19.59
2023-02-02T01:22:41.419Z,19.58
2023-02-02T01:23:41.514Z,19.59
2023-02-02T01:24:41.387Z,19.58
2023-02-02T01:25:41.388Z,19.59
2023-02-02T01:26:41.444Z,19.58
2023-02-02T01:27:43.121Z,19.61
2023-02-02T01:28:41.363Z,19.58
2023-02-02T01:29:42.288Z,19.59
2023-02-02T01:30:41.409Z,19.59
2023-02-02T01:31:41.406Z,19.59
2023-02-02T01:32:41.319Z,19.58
2023-02-02T01:33:41.273Z,19.59
2023-02-02T01:34:41.323Z,19.59
2023-02-02T01:35:41.258Z,19.58
2023-02-02T01:36:41.278Z,19.58
2023-02-02T01:37:41.248Z,19.58
2023-02-02T01:38:41.315Z,19.59
2023-02-02T01:39:41.208Z,19.58
2023-02-02T01:40:41.226Z,19.59
2023-02-02T01:41:41.239Z,19.58
2023-02-02T01:42:41.236Z,19.59
2023-02-02T01:43:41.222Z,19.59
2023-02-02T01:44:41.187Z,19.59
2023-02-02T01:45:41.196Z,19.59
2023-02-02T01:46:41.197Z,19.58
2023-02-02T01:47:41.177Z,19.59
2023-02-02T01:48:41.812Z,19.59
2023-02-02T01:49:41.169Z,19.58
2023-02-02T01:50:41.111Z,19.59
2023-02-02T01:51:41.108Z,19.58
2023-02-02T01:52:41.146Z,19.61
2023-02-02T01:53:41.096Z,19.58
2023-02-02T01:54:41.080Z,19.58
2023-02-02T01:55:41.057Z,19.58
2023-02-02T01:56:41.089Z,19.59
2023-02-02T01:57:41.057Z,19.61
2023-02-02T01:58:41.089Z,19.59
2023-02-02T01:59:41.038Z,19.59
2023-02-02T02:00:41.048Z,19.59
2023-02-02T02:01:40.980Z,19.58
2023-02-02T02:02:41.042Z,19.59
2023-02-02T02:03:40.969Z,19.59
2023-02-02T02:04:40.988Z,19.58
2023-02-02T02:05:40.969Z,19.59
2023-02-02T02:06:40.973Z,19.59
2023-02-02T02:07:40.940Z,19.59
2023-02-02T02:08:40.960Z,19.59
2023-02-02T02:09:40.910Z,19.58
2023-02-02T02:10:40.909Z,19.61
2023-02-02T02:11:40.900Z,19.58
2023-02-02T02:12:40.921Z,19.61
2023-02-02T02:13:40.890Z,19.58
2023-02-02T02:14:40.888Z,19.59
2023-02-02T02:15:40.851Z,19.59
2023-02-02T02:16:40.894Z,19.59
2023-02-02T02:17:40.849Z,19.59
2023-02-02T02:18:40.856Z,19.61
2023-02-02T02:19:40.811Z,19.61
2023-02-02T02:20:40.832Z,19.59
2023-02-02T02:21:40.788Z,19.61
2023-02-02T02:22:40.804Z,19.59
2023-02-02T02:23:40.769Z,19.58
2023-02-02T02:24:40.791Z,19.59
2023-02-02T02:25:40.812Z,19.59
2023-02-02T02:26:40.781Z,19.61
2023-02-02T02:27:40.740Z,19.59
2023-02-02T02:28:40.783Z,19.59
2023-02-02T02:29:40.737Z,19.59
2023-02-02T02:30:40.779Z,19.59
2023-02-02T02:31:40.804Z,19.58
2023-02-02T02:32:40.694Z,19.59
2023-02-02T02:33:40.710Z,19.59
2023-02-02T02:34:40.673Z,19.59
2023-02-02T02:35:40.650Z,19.59
2023-02-02T02:36:40.688Z,19.59
2023-02-02T02:37:40.621Z,19.58
2023-02-02T02:38:40.631Z,19.58
2023-02-02T02:39:40.626Z,19.58
2023-02-02T02:40:40.602Z,19.59
2023-02-02T02:41:40.700Z,19.58
2023-02-02T02:42:40.646Z,19.59
2023-02-02T02:43:40.590Z,19.59
2023-02-02T02:44:40.591Z,19.59
2023-02-02T02:45:40.539Z,19.59
2023-02-02T02:46:40.560Z,19.59
2023-02-02T02:47:40.510Z,19.59
2023-02-02T02:48:40.549Z,19.61
2023-02-02T02:49:40.497Z,19.58
2023-02-02T02:50:40.522Z,19.59
2023-02-02T02:51:40.517Z,19.61
2023-02-02T02:52:40.507Z,19.59
2023-02-02T02:53:40.471Z,19.59
2023-02-02T02:54:40.491Z,19.58
2023-02-02T02:55:40.466Z,19.59
2023-02-02T02:56:40.517Z,19.59
2023-02-02T02:57:40.447Z,19.59
2023-02-02T02:58:40.444Z,19.59
2023-02-02T02:59:40.445Z,19.59
2023-02-02T03:00:40.408Z,19.59
2023-02-02T03:01:40.402Z,19.59
2023-02-02T03:02:40.450Z,19.58
2023-02-02T03:03:40.349Z,19.61
2023-02-02T03:04:40.400Z,19.59
2023-02-02T03:05:40.350Z,19.59
2023-02-02T03:06:40.328Z,19.58
2023-02-02T03:07:40.342Z,19.61
2023-02-02T03:08:40.314Z,19.59
2023-02-02T03:09:40.343Z,19.59
2023-02-02T03:10:40.329Z,19.58
2023-02-02T03:11:40.304Z,19.59
2023-02-02T03:12:40.262Z,19.59
2023-02-02T03:13:40.282Z,19.59
2023-02-02T03:14:40.253Z,19.59
2023-02-02T03:15:40.343Z,19.59
2023-02-02T03:16:40.248Z,19.59
2023-02-02T03:17:40.241Z,19.59
2023-02-02T03:18:40.246Z,19.56
2023-02-02T03:19:40.220Z,19.59
2023-02-02T03:20:40.185Z,19.58
2023-02-02T03:21:40.203Z,19.59
2023-02-02T03:22:40.162Z,19.59
2023-02-02T03:23:40.162Z,19.59
2023-02-02T03:24:40.144Z,19.58
2023-02-02T03:25:40.151Z,19.59
2023-02-02T03:26:40.199Z,19.59
2023-02-02T03:27:40.159Z,19.59
2023-02-02T03:28:40.123Z,19.58
2023-02-02T03:29:40.093Z,19.59
2023-02-02T03:30:40.127Z,19.61
2023-02-02T03:31:40.140Z,19.59
2023-02-02T03:32:40.090Z,19.61
2023-02-02T03:33:40.102Z,19.59
2023-02-02T03:34:40.031Z,19.59
2023-02-02T03:35:40.080Z,19.59
2023-02-02T03:36:40.007Z,19.61
2023-02-02T03:37:40.010Z,19.58
2023-02-02T03:38:40.013Z,19.59
2023-02-02T03:39:40.019Z,19.59
2023-02-02T03:40:39.971Z,19.59
2023-02-02T03:41:40.000Z,19.59
2023-02-02T03:42:39.982Z,19.59
2023-02-02T03:43:39.956Z,19.61
2023-02-02T03:44:39.954Z,19.59
2023-02-02T03:45:39.942Z,19.61
2023-02-02T03:46:39.962Z,19.59
2023-02-02T03:47:39.926Z,19.61
2023-02-02T03:48:39.950Z,19.59
2023-02-02T03:49:40.087Z,19.61
2023-02-02T03:50:40.831Z,19.61
2023-02-02T03:51:39.897Z,19.61
2023-02-02T03:52:39.867Z,19.59
2023-02-02T03:53:39.860Z,19.59
2023-02-02T03:54:39.839Z,19.61
2023-02-02T03:55:39.842Z,19.61
2023-02-02T03:56:39.804Z,19.59
2023-02-02T03:57:39.833Z,19.61
2023-02-02T03:58:39.825Z,19.59
2023-02-02T03:59:39.823Z,19.59
2023-02-02T04:00:39.805Z,19.59
2023-02-02T04:01:39.850Z,19.61
2023-02-02T04:02:40.740Z,19.61
2023-02-02T04:03:39.777Z,19.59
2023-02-02T04:04:39.845Z,19.61
2023-02-02T04:05:39.740Z,19.61
2023-02-02T04:06:39.783Z,19.61
2023-02-02T04:08:35.687Z,19.62
2023-02-02T04:09:35.672Z,19.61
2023-02-02T04:10:35.647Z,19.59
2023-02-02T04:11:35.639Z,19.59
2023-02-02T04:12:35.600Z,19.59
2023-02-02T04:13:35.618Z,19.61
2023-02-02T04:14:35.599Z,19.59
2023-02-02T04:15:35.624Z,19.61
2023-02-02T04:16:35.684Z,19.62
2023-02-02T04:17:35.560Z,19.59
2023-02-02T04:18:35.551Z,19.59
2023-02-02T04:19:35.568Z,19.61
2023-02-02T04:20:35.560Z,19.59
2023-02-02T04:21:35.547Z,19.59
2023-02-02T04:22:35.552Z,19.59
2023-02-02T04:23:35.530Z,19.62
2023-02-02T04:24:37.926Z,19.59
2023-02-02T04:25:35.494Z,19.61
2023-02-02T04:26:35.514Z,19.59
2023-02-02T04:27:35.470Z,19.61
2023-02-02T04:28:35.467Z,19.61
2023-02-02T04:29:35.463Z,19.61
2023-02-02T04:30:35.450Z,19.61
2023-02-02T04:31:35.475Z,19.61
2023-02-02T04:32:35.455Z,19.59
2023-02-02T04:33:35.420Z,19.61
2023-02-02T04:34:35.394Z,19.62
2023-02-02T04:35:35.390Z,19.62
2023-02-02T04:36:35.379Z,19.61
2023-02-02T04:37:35.400Z,19.61
2023-02-02T04:38:35.340Z,19.61
2023-02-02T04:39:35.349Z,19.59
2023-02-02T04:40:35.375Z,19.61
2023-02-02T04:41:35.349Z,19.61
2023-02-02T04:42:35.319Z,19.59
2023-02-02T04:43:35.311Z,19.61
2023-02-02T04:44:35.307Z,19.61
2023-02-02T04:45:35.352Z,19.61
2023-02-02T04:46:35.258Z,19.61
2023-02-02T04:47:35.250Z,19.59
2023-02-02T04:48:35.304Z,19.61
2023-02-02T04:49:35.244Z,19.61
2023-02-02T04:50:35.235Z,19.62
2023-02-02T04:51:35.236Z,19.59
2023-02-02T04:52:36.213Z,19.61
2023-02-02T04:53:35.222Z,19.61
2023-02-02T04:54:35.171Z,19.59
2023-02-02T04:55:35.200Z,19.61
2023-02-02T04:56:39.839Z,19.61
2023-02-02T04:57:35.189Z,19.58
2023-02-02T04:58:35.130Z,19.61
2023-02-02T04:59:35.155Z,19.61
2023-02-02T05:00:35.122Z,19.61
2023-02-02T05:01:35.154Z,19.59
2023-02-02T05:02:35.142Z,19.61
2023-02-02T05:03:35.155Z,19.61
2023-02-02T05:04:35.133Z,19.61
2023-02-02T05:05:35.147Z,19.59
2023-02-02T05:06:35.091Z,19.59
2023-02-02T05:07:35.080Z,19.61
2023-02-02T05:08:35.114Z,19.59
2023-02-02T05:09:35.025Z,19.62
2023-02-02T05:10:35.022Z,19.61
2023-02-02T05:11:34.993Z,19.61
2023-02-02T05:12:35.008Z,19.59
2023-02-02T05:13:35.010Z,19.62
2023-02-02T05:14:34.999Z,19.62
2023-02-02T05:15:34.950Z,19.62
2023-02-02T05:16:35.010Z,19.61
2023-02-02T05:17:34.966Z,19.61
2023-02-02T05:18:34.980Z,19.62
2023-02-02T05:19:34.950Z,19.61
2023-02-02T05:20:34.931Z,19.62
2023-02-02T05:21:34.917Z,19.62
2023-02-02T05:22:34.895Z,19.62
2023-02-02T05:23:34.881Z,19.62
2023-02-02T05:24:34.908Z,19.63
2023-02-02T05:25:34.889Z,19.62
2023-02-02T05:26:34.895Z,19.62
2023-02-02T05:27:34.838Z,19.63
2023-02-02T05:28:34.828Z,19.62
2023-02-02T05:29:34.826Z,19.62
2023-02-02T05:30:34.900Z,19.63
2023-02-02T05:31:34.881Z,19.63
2023-02-02T05:32:34.832Z,19.63
2023-02-02T05:33:34.771Z,19.65
2023-02-02T05:34:34.791Z,19.63
2023-02-02T05:35:34.773Z,19.63
2023-02-02T05:36:34.783Z,19.65
2023-02-02T05:37:34.751Z,19.65
2023-02-02T05:38:34.732Z,19.65
2023-02-02T05:39:34.741Z,19.65
2023-02-02T05:40:34.712Z,19.65
2023-02-02T05:41:34.718Z,19.65
2023-02-02T05:42:34.752Z,19.63
2023-02-02T05:43:34.718Z,19.65
2023-02-02T05:44:34.709Z,19.65
2023-02-02T05:45:34.739Z,19.65
2023-02-02T05:46:34.712Z,19.65
2023-02-02T05:47:34.633Z,19.66
2023-02-02T05:48:34.622Z,19.65
2023-02-02T05:49:34.603Z,19.65
2023-02-02T05:50:34.611Z,19.66
2023-02-02T05:51:34.660Z,19.66
2023-02-02T05:52:34.652Z,19.65
2023-02-02T05:53:34.579Z,19.66
2023-02-02T05:54:34.583Z,19.66
2023-02-02T05:55:34.575Z,19.66
2023-02-02T05:56:34.593Z,19.68
2023-02-02T05:57:34.581Z,19.68
2023-02-02T05:58:34.547Z,19.66
2023-02-02T05:59:34.615Z,19.69
2023-02-02T06:00:34.500Z,19.68
2023-02-02T06:01:34.478Z,19.68
2023-02-02T06:02:34.502Z,19.68
2023-02-02T06:03:34.566Z,19.66
2023-02-02T06:04:34.460Z,19.68
2023-02-02T06:05:34.483Z,19.66
2023-02-02T06:06:34.448Z,19.68
2023-02-02T06:07:34.440Z,19.68
2023-02-02T06:08:34.436Z,19.69
2023-02-02T06:09:34.450Z,19.69
2023-02-02T06:10:34.431Z,19.69
2023-02-02T06:11:34.413Z,19.68
2023-02-02T06:12:34.422Z,19.66
2023-02-02T06:13:34.400Z,19.69
2023-02-02T06:14:34.388Z,19.68
2023-02-02T06:15:34.394Z,19.69
2023-02-02T06:16:34.353Z,19.68
2023-02-02T06:17:34.333Z,19.68
2023-02-02T06:18:34.383Z,19.68
2023-02-02T06:19:34.341Z,19.68
2023-02-02T06:20:34.302Z,19.69
2023-02-02T06:21:34.294Z,19.68
2023-02-02T06:22:34.385Z,19.68
2023-02-02T06:23:34.271Z,19.68
2023-02-02T06:24:34.250Z,19.69
2023-02-02T06:25:34.917Z,19.69
2023-02-02T06:26:34.315Z,19.69
2023-02-02T06:27:34.287Z,19.68
2023-02-02T06:28:34.222Z,19.69
2023-02-02T06:29:34.181Z,19.69
2023-02-02T06:30:34.251Z,19.69
2023-02-02T06:31:34.454Z,19.69
2023-02-02T06:32:34.141Z,19.69
2023-02-02T06:33:34.162Z,19.71
2023-02-02T06:34:34.390Z,19.71
2023-02-02T06:35:34.203Z,19.68
2023-02-02T06:36:34.134Z,19.69
2023-02-02T06:37:34.157Z,19.68
2023-02-02T06:38:34.142Z,19.66
2023-02-02T06:39:34.112Z,19.68
2023-02-02T06:40:34.100Z,19.66
2023-02-02T06:41:34.103Z,19.66
2023-02-02T06:42:34.094Z,19.66
2023-02-02T06:43:34.072Z,19.65
2023-02-02T06:44:34.040Z,19.65
2023-02-02T06:45:34.031Z,19.62
2023-02-02T06:46:34.045Z,19.63
2023-02-02T06:47:34.069Z,19.61
2023-02-02T06:48:34.029Z,19.61
2023-02-02T06:49:34.038Z,19.59
2023-02-02T06:50:34.033Z,19.61
2023-02-02T06:51:33.972Z,19.61
2023-02-02T06:52:33.983Z,19.58
2023-02-02T06:53:33.954Z,19.58
2023-02-02T06:54:34.012Z,19.58
2023-02-02T06:55:33.941Z,19.58
2023-02-02T06:56:33.997Z,19.56
2023-02-02T06:57:33.940Z,19.54
2023-02-02T06:58:33.916Z,19.55
2023-02-02T06:59:33.870Z,19.55
2023-02-02T07:00:33.880Z,19.56
2023-02-02T07:01:33.888Z,19.55
2023-02-02T07:02:33.939Z,19.55
2023-02-02T07:03:33.860Z,19.51
2023-02-02T07:04:33.864Z,19.51
2023-02-02T07:05:33.840Z,19.51
2023-02-02T07:06:33.845Z,19.51
2023-02-02T07:07:33.813Z,19.50
2023-02-02T07:08:33.808Z,19.50
2023-02-02T07:09:33.775Z,19.50
2023-02-02T07:11:14.363Z,19.50
2023-02-02T07:11:36.976Z,19.50
2023-02-02T07:12:33.753Z,19.48
2023-02-02T07:13:33.763Z,19.50
2023-02-02T07:14:33.705Z,19.48
2023-02-02T07:15:33.667Z,19.50
2023-02-02T07:16:33.735Z,19.50
2023-02-02T07:17:33.702Z,19.48
2023-02-02T07:18:33.693Z,19.48
2023-02-02T07:19:33.720Z,19.47
2023-02-02T07:20:33.678Z,19.47
2023-02-02T07:21:33.668Z,19.47
2023-02-02T07:22:33.692Z,19.46
2023-02-02T07:23:33.651Z,19.47
2023-02-02T07:24:33.663Z,19.47
2023-02-02T07:25:33.640Z,19.47
2023-02-02T07:26:33.755Z,19.46
2023-02-02T07:27:33.572Z,19.46
2023-02-02T07:28:33.594Z,19.46
2023-02-02T07:29:33.582Z,19.44
2023-02-02T07:30:33.625Z,19.44
2023-02-02T07:31:36.108Z,19.44
2023-02-02T07:32:33.550Z,19.46
2023-02-02T07:33:33.571Z,19.44
2023-02-02T07:34:33.552Z,19.46
2023-02-02T07:35:33.578Z,19.46
2023-02-02T07:36:33.519Z,19.44
2023-02-02T07:37:33.503Z,19.43
2023-02-02T07:38:33.474Z,19.43
2023-02-02T07:39:33.442Z,19.43
2023-02-02T07:40:33.502Z,19.43
2023-02-02T07:41:33.494Z,19.44
2023-02-02T07:42:33.393Z,19.44
2023-02-02T07:43:33.389Z,19.43
2023-02-02T07:44:33.443Z,19.43
2023-02-02T07:45:33.421Z,19.41
2023-02-02T07:46:33.467Z,19.44
2023-02-02T07:47:33.377Z,19.41
2023-02-02T07:48:33.492Z,19.43
2023-02-02T07:49:33.344Z,19.43
2023-02-02T07:50:33.420Z,19.43
2023-02-02T07:51:33.428Z,19.44
2023-02-02T07:52:33.324Z,19.43
2023-02-02T07:53:33.961Z,19.43
2023-02-02T07:54:33.349Z,19.41
2023-02-02T07:55:33.304Z,19.43
2023-02-02T07:56:33.394Z,19.41
2023-02-02T07:57:33.310Z,19.43
2023-02-02T07:58:33.275Z,19.41
2023-02-02T07:59:33.262Z,19.41
2023-02-02T08:00:33.271Z,19.41
2023-02-02T08:01:33.298Z,19.41
2023-02-02T08:02:33.310Z,19.41
2023-02-02T08:03:33.255Z,19.43
2023-02-02T08:04:33.227Z,19.43
2023-02-02T08:05:33.153Z,19.43
2023-02-02T08:06:33.132Z,19.43
2023-02-02T08:07:33.114Z,19.41
2023-02-02T08:08:33.137Z,19.41
2023-02-02T08:09:33.145Z,19.43
2023-02-02T08:10:33.100Z,19.41
2023-02-02T08:11:33.063Z,19.43
2023-02-02T08:12:33.072Z,19.43
2023-02-02T08:13:33.036Z,19.43
2023-02-02T08:14:33.076Z,19.46
2023-02-02T08:15:33.049Z,19.44
2023-02-02T08:16:33.112Z,19.46
2023-02-02T08:17:33.012Z,19.47
2023-02-02T08:18:33.036Z,19.46
2023-02-02T08:19:34.806Z,19.48
2023-02-02T08:20:32.998Z,19.50
2023-02-02T08:21:32.963Z,19.51
2023-02-02T08:22:32.971Z,19.54
2023-02-02T08:23:32.935Z,19.55
2023-02-02T08:24:33.016Z,19.55
2023-02-02T08:25:32.926Z,19.55
2023-02-02T08:26:37.649Z,19.56
2023-02-02T08:27:32.899Z,19.56
2023-02-02T08:28:32.916Z,19.58
2023-02-02T08:29:32.916Z,19.61
2023-02-02T08:30:32.951Z,19.63
2023-02-02T08:31:32.953Z,19.65
2023-02-02T08:32:32.864Z,19.68
2023-02-02T08:33:32.834Z,19.71
2023-02-02T08:34:32.824Z,19.74
2023-02-02T08:35:32.947Z,19.77
2023-02-02T08:36:32.832Z,19.78
2023-02-02T08:37:32.803Z,19.81
2023-02-02T08:38:32.783Z,19.84
2023-02-02T08:39:32.755Z,19.86
2023-02-02T08:40:33.806Z,19.91
2023-02-02T08:41:32.807Z,19.94
2023-02-02T08:42:32.775Z,19.96
2023-02-02T08:43:32.728Z,19.98
2023-02-02T08:45:59.583Z,20.01
2023-02-02T08:46:07.757Z,20.03
2023-02-02T08:46:33.762Z,20.05
2023-02-02T08:47:32.717Z,20.06
2023-02-02T08:48:32.760Z,20.10
2023-02-02T08:49:32.663Z,20.13
2023-02-02T08:50:33.713Z,20.13
2023-02-02T08:51:32.665Z,20.17
2023-02-02T08:52:32.660Z,20.20
2023-02-02T08:53:32.630Z,20.23
2023-02-02T08:54:32.638Z,20.24
2023-02-02T08:55:32.587Z,20.28
2023-02-02T08:56:37.371Z,20.29
2023-02-02T08:57:32.659Z,20.32
2023-02-02T08:58:32.591Z,20.35
2023-02-02T08:59:32.568Z,20.36
2023-02-02T09:00:32.607Z,20.38
2023-02-02T09:01:32.545Z,20.41
2023-02-02T09:02:32.779Z,20.42
2023-02-02T09:03:32.556Z,20.47
2023-02-02T09:04:32.529Z,20.48
2023-02-02T09:05:32.483Z,20.51
2023-02-02T09:06:32.574Z,20.51
2023-02-02T09:07:32.553Z,20.54
2023-02-02T09:09:29.181Z,20.57
2023-02-02T09:10:29.155Z,20.59
2023-02-02T09:11:29.155Z,20.61
2023-02-02T09:12:29.122Z,20.62
2023-02-02T09:13:29.152Z,20.61
2023-02-02T09:14:29.111Z,20.66
2023-02-02T09:15:29.125Z,20.67
2023-02-02T09:16:29.193Z,20.66
2023-02-02T09:17:29.135Z,20.69
2023-02-02T09:18:29.075Z,20.69
2023-02-02T09:19:29.096Z,20.69
2023-02-02T09:20:29.066Z,20.70
2023-02-02T09:21:29.067Z,20.73
2023-02-02T09:22:29.106Z,20.73
2023-02-02T09:23:29.031Z,20.73
2023-02-02T09:24:29.011Z,20.73
2023-02-02T09:25:29.005Z,20.74
2023-02-02T09:26:29.085Z,20.77
2023-02-02T09:27:28.992Z,20.79
2023-02-02T09:28:28.972Z,20.79
2023-02-02T09:29:28.972Z,20.79
2023-02-02T09:30:28.964Z,20.82
2023-02-02T09:31:28.983Z,20.84
2023-02-02T09:32:28.945Z,20.85
2023-02-02T09:33:28.927Z,20.85
2023-02-02T09:34:28.903Z,20.87
2023-02-02T09:35:28.934Z,20.88
2023-02-02T09:36:28.910Z,20.88
2023-02-02T09:37:28.952Z,20.89
2023-02-02T09:38:28.873Z,20.89
2023-02-02T09:39:28.863Z,20.91
2023-02-02T09:40:28.834Z,20.92
2023-02-02T09:41:28.878Z,20.92
2023-02-02T09:42:28.841Z,20.95
2023-02-02T09:43:28.814Z,20.95
2023-02-02T09:44:28.798Z,20.97
2023-02-02T09:45:28.831Z,20.98
2023-02-02T09:46:28.784Z,20.98
2023-02-02T09:47:28.785Z,20.97
2023-02-02T09:48:28.784Z,20.98
2023-02-02T09:49:28.777Z,20.98
2023-02-02T09:50:28.736Z,20.97
2023-02-02T09:51:28.722Z,20.98
2023-02-02T09:52:28.719Z,20.98
2023-02-02T09:53:28.742Z,20.97
2023-02-02T09:54:28.710Z,20.97
2023-02-02T09:55:28.709Z,20.95
2023-02-02T09:56:28.684Z,20.95
2023-02-02T09:57:28.686Z,20.94
2023-02-02T09:58:28.672Z,20.95
2023-02-02T09:59:29.639Z,20.95
2023-02-02T10:00:28.666Z,20.95
2023-02-02T10:01:28.674Z,20.95
2023-02-02T10:02:28.652Z,20.95
2023-02-02T10:03:28.665Z,20.95
2023-02-02T10:04:28.637Z,20.97
2023-02-02T10:05:28.592Z,20.98
2023-02-02T10:06:28.561Z,20.98
2023-02-02T10:07:28.582Z,21.01
2023-02-02T10:08:34.649Z,21.01
2023-02-02T10:09:29.552Z,20.99
2023-02-02T10:10:28.543Z,21.01
2023-02-02T10:11:28.524Z,21.03
2023-02-02T10:12:28.525Z,21.01
2023-02-02T10:13:28.505Z,21.03
2023-02-02T10:14:28.544Z,21.03
2023-02-02T10:15:28.532Z,21.04
2023-02-02T10:16:28.489Z,21.03
2023-02-02T10:17:28.491Z,21.04
2023-02-02T10:18:28.475Z,21.04
2023-02-02T10:19:28.433Z,21.06
2023-02-02T10:20:28.613Z,21.06
2023-02-02T10:21:28.433Z,21.06
2023-02-02T10:22:29.099Z,21.07
2023-02-02T10:23:28.403Z,21.07
2023-02-02T10:24:28.402Z,21.09
2023-02-02T10:25:28.373Z,21.09
2023-02-02T10:26:28.390Z,21.09
2023-02-02T10:27:28.374Z,21.09
2023-02-02T10:28:28.366Z,21.10
2023-02-02T10:29:32.668Z,21.10
2023-02-02T10:30:29.464Z,21.10
2023-02-02T10:31:28.438Z,21.13
2023-02-02T10:32:28.334Z,21.10
2023-02-02T10:33:28.305Z,21.10
2023-02-02T10:34:28.282Z,21.10
2023-02-02T10:35:28.314Z,21.14
2023-02-02T10:36:28.282Z,21.14
2023-02-02T10:37:28.254Z,21.16
2023-02-02T10:38:28.270Z,21.16
2023-02-02T10:39:28.245Z,21.17
2023-02-02T10:40:28.435Z,21.17
2023-02-02T10:41:28.259Z,21.17
2023-02-02T10:42:28.225Z,21.17
2023-02-02T10:43:28.214Z,21.21
2023-02-02T10:44:28.184Z,21.19
2023-02-02T10:45:28.174Z,21.21
2023-02-02T10:46:28.249Z,21.21
2023-02-02T10:47:28.150Z,21.21
2023-02-02T10:48:28.175Z,21.24
2023-02-02T10:49:28.193Z,21.21
2023-02-02T10:50:28.615Z,21.24
2023-02-02T10:51:28.091Z,21.22
2023-02-02T10:52:28.103Z,21.22
2023-02-02T10:53:28.114Z,21.22
2023-02-02T10:54:28.084Z,21.21
2023-02-02T10:55:28.069Z,21.19
2023-02-02T10:56:28.118Z,21.17
2023-02-02T10:57:28.057Z,21.14
2023-02-02T10:58:28.044Z,21.14
2023-02-02T10:59:28.014Z,21.13
2023-02-02T11:00:28.332Z,21.12
2023-02-02T11:01:28.031Z,21.10
2023-02-02T11:02:28.036Z,21.07
2023-02-02T11:03:27.974Z,21.07
2023-02-02T11:04:27.978Z,21.06
2023-02-02T11:05:27.945Z,21.04
2023-02-02T11:06:27.967Z,21.03
2023-02-02T11:07:27.945Z,21.01
2023-02-02T11:08:27.957Z,20.99
2023-02-02T11:09:27.916Z,20.99
2023-02-02T11:10:28.230Z,20.98
2023-02-02T11:11:27.907Z,20.97
2023-02-02T11:12:27.926Z,20.97
2023-02-02T11:13:27.900Z,20.97
2023-02-02T11:14:27.875Z,20.95
2023-02-02T11:15:27.865Z,20.95
2023-02-02T11:16:38.895Z,20.94
2023-02-02T11:17:29.795Z,20.94
2023-02-02T11:18:27.845Z,20.92
2023-02-02T11:19:27.831Z,20.94
2023-02-02T11:20:27.825Z,20.94
2023-02-02T11:21:27.783Z,20.94
2023-02-02T11:22:27.801Z,20.94
2023-02-02T11:23:27.773Z,20.91
2023-02-02T11:24:27.795Z,20.92
2023-02-02T11:25:29.427Z,20.94
2023-02-02T11:26:27.782Z,20.92
2023-02-02T11:27:27.738Z,20.91
2023-02-02T11:28:27.736Z,20.94
2023-02-02T11:29:27.717Z,20.94
2023-02-02T11:30:27.768Z,20.94
2023-02-02T11:31:27.788Z,20.92
2023-02-02T11:32:27.789Z,20.94
2023-02-02T11:33:27.665Z,20.92
2023-02-02T11:34:27.680Z,20.92
2023-02-02T11:35:27.655Z,20.92
2023-02-02T11:36:27.646Z,20.92
2023-02-02T11:37:27.679Z,20.91
2023-02-02T11:38:27.660Z,20.92
2023-02-02T11:39:27.612Z,20.92
2023-02-02T11:40:27.957Z,20.91
2023-02-02T11:41:27.631Z,20.92
2023-02-02T11:42:27.592Z,20.94
2023-02-02T11:43:28.251Z,20.94
2023-02-02T11:44:27.583Z,20.94
2023-02-02T11:45:27.550Z,20.94
2023-02-02T11:46:27.785Z,20.94
2023-02-02T11:47:27.527Z,20.94
2023-02-02T11:48:27.537Z,20.94
2023-02-02T11:49:27.506Z,20.92
2023-02-02T11:50:27.692Z,20.92
2023-02-02T11:51:27.530Z,20.92
2023-02-02T11:52:27.476Z,20.91
2023-02-02T11:53:27.473Z,20.91
2023-02-02T11:54:27.495Z,20.91
2023-02-02T11:55:27.448Z,20.89
2023-02-02T11:56:27.459Z,20.91
2023-02-02T11:57:27.427Z,20.92
2023-02-02T11:58:27.475Z,20.92
2023-02-02T11:59:27.426Z,20.89
2023-02-02T12:00:27.892Z,20.89
2023-02-02T12:01:27.388Z,20.91
2023-02-02T12:02:27.457Z,20.91
2023-02-02T12:03:27.361Z,20.88
2023-02-02T12:04:27.411Z,20.88
2023-02-02T12:05:27.346Z,20.89
2023-02-02T12:06:27.423Z,20.88
2023-02-02T12:07:27.343Z,20.88
2023-02-02T12:08:27.324Z,20.88
2023-02-02T12:09:27.280Z,20.87
2023-02-02T12:10:27.566Z,20.87
2023-02-02T12:11:27.289Z,20.85
2023-02-02T12:12:27.279Z,20.85
2023-02-02T12:13:27.258Z,20.84
2023-02-02T12:14:27.292Z,20.85
2023-02-02T12:15:27.244Z,20.84
2023-02-02T12:16:27.307Z,20.84
2023-02-02T12:17:27.212Z,20.82
2023-02-02T12:18:27.230Z,20.84
2023-02-02T12:19:27.238Z,20.82
2023-02-02T12:20:27.760Z,20.82
2023-02-02T12:21:28.132Z,20.80
2023-02-02T12:22:27.179Z,20.80
2023-02-02T12:23:27.148Z,20.80
2023-02-02T12:24:27.179Z,20.79
2023-02-02T12:25:27.475Z,20.79
2023-02-02T12:26:27.156Z,20.79
2023-02-02T12:27:27.132Z,20.77
2023-02-02T12:28:27.122Z,20.79
2023-02-02T12:29:27.091Z,20.77
2023-02-02T12:30:27.489Z,20.76
2023-02-02T12:31:27.131Z,20.77
2023-02-02T12:32:27.071Z,20.77
2023-02-02T12:33:27.056Z,20.77
2023-02-02T12:34:27.054Z,20.76
2023-02-02T12:35:27.009Z,20.74
2023-02-02T12:36:27.054Z,20.74
2023-02-02T12:37:27.012Z,20.74
2023-02-02T12:38:27.029Z,20.76
2023-02-02T12:39:27.940Z,20.74
2023-02-02T12:40:27.304Z,20.73
2023-02-02T12:41:26.975Z,20.76
2023-02-02T12:42:26.983Z,20.73
2023-02-02T12:43:26.961Z,20.74
2023-02-02T12:44:26.993Z,20.73
2023-02-02T12:45:26.975Z,20.73
2023-02-02T12:46:26.961Z,20.73
2023-02-02T12:47:27.851Z,20.73
2023-02-02T12:48:26.913Z,20.74
2023-02-02T12:49:26.930Z,20.73
2023-02-02T12:50:27.287Z,20.72
2023-02-02T12:51:26.851Z,20.72
2023-02-02T12:52:26.850Z,20.72
2023-02-02T12:53:26.864Z,20.72
2023-02-02T12:54:33.082Z,20.70